createdAt,value
2019-06-27T00:00:55.189Z,26.80
2019-06-27T00:03:21.214Z,26.70
2019-06-27T00:05:47.337Z,26.70
2019-06-27T00:08:13.556Z,26.60
2019-06-27T00:10:39.600Z,26.60
2019-06-27T00:13:05.600Z,26.60
2019-06-27T00:15:31.626Z,26.50
2019-06-27T00:17:57.697Z,26.40
2019-06-27T00:20:23.788Z,26.40
2019-06-27T00:22:49.834Z,26.40
2019-06-27T00:25:15.858Z,26.40
2019-06-27T00:27:41.892Z,26.40
2019-06-27T00:30:08.216Z,26.30
2019-06-27T00:32:34.246Z,26.30
2019-06-27T00:35:00.562Z,26.30
2019-06-27T00:37:26.577Z,26.20
2019-06-27T00:39:52.577Z,26.00
2019-06-27T00:42:19.799Z,25.90
2019-06-27T00:44:45.849Z,25.80
2019-06-27T00:47:12.007Z,25.80
2019-06-27T00:49:38.224Z,25.80
2019-06-27T00:52:04.377Z,25.80
2019-06-27T00:54:30.388Z,25.80
2019-06-27T00:57:12.599Z,25.70
2019-06-27T00:59:24.297Z,25.60
2019-06-27T01:01:50.583Z,25.60
2019-06-27T01:04:19.290Z,25.50
2019-06-27T01:06:47.289Z,25.50
2019-06-27T01:09:13.346Z,25.40
2019-06-27T01:11:39.407Z,25.40
2019-06-27T01:14:05.532Z,25.40
2019-06-27T01:16:31.636Z,25.50
2019-06-27T01:18:57.651Z,25.40
2019-06-27T01:21:23.670Z,25.50
2019-06-27T01:23:49.696Z,25.50
2019-06-27T01:26:15.824Z,25.50
2019-06-27T01:28:41.842Z,25.60
2019-06-27T01:31:07.962Z,25.60
2019-06-27T01:33:38.701Z,25.60
2019-06-27T01:36:04.719Z,25.60
2019-06-27T01:38:30.748Z,25.50
2019-06-27T01:40:56.850Z,25.40
2019-06-27T01:43:24.761Z,25.50
2019-06-27T01:45:52.768Z,25.40
2019-06-27T01:48:20.070Z,25.40
2019-06-27T01:50:46.061Z,25.40
2019-06-27T01:53:12.105Z,25.30
2019-06-27T01:55:38.589Z,25.20
2019-06-27T01:58:04.766Z,25.20
2019-06-27T02:00:31.204Z,25.30
2019-06-27T02:02:57.401Z,25.30
2019-06-27T02:05:23.446Z,25.20
2019-06-27T02:07:49.462Z,25.20
2019-06-27T02:10:16.825Z,25.20
2019-06-27T02:12:42.846Z,25.30
2019-06-27T02:15:09.074Z,25.20
2019-06-27T02:17:35.094Z,25.10
2019-06-27T02:20:01.350Z,25.00
2019-06-27T02:22:27.373Z,25.00
2019-06-27T02:24:53.402Z,25.00
2019-06-27T02:27:19.430Z,25.00
2019-06-27T02:29:45.444Z,24.90
2019-06-27T02:32:11.480Z,24.70
2019-06-27T02:34:37.505Z,24.60
2019-06-27T02:37:03.497Z,24.40
2019-06-27T02:39:29.523Z,24.30
2019-06-27T02:41:55.565Z,24.10
2019-06-27T02:44:21.610Z,24.10
2019-06-27T02:46:47.638Z,24.20
2019-06-27T02:49:13.633Z,24.30
2019-06-27T02:51:39.848Z,24.30
2019-06-27T02:54:05.884Z,24.20
2019-06-27T02:56:31.898Z,24.00
2019-06-27T02:58:57.913Z,24.00
2019-06-27T03:01:23.965Z,24.00
2019-06-27T03:03:49.983Z,24.00
2019-06-27T03:06:15.998Z,23.90
2019-06-27T03:08:42.026Z,23.80
2019-06-27T03:11:08.080Z,23.60
2019-06-27T03:13:36.973Z,23.70
2019-06-27T03:16:02.983Z,23.70
2019-06-27T03:18:30.157Z,23.90
2019-06-27T03:20:56.213Z,23.80
2019-06-27T03:23:22.218Z,23.90
2019-06-27T03:25:48.272Z,23.70
2019-06-27T03:28:14.602Z,23.60
2019-06-27T03:30:40.822Z,23.60
2019-06-27T03:33:06.881Z,23.70
2019-06-27T03:35:32.906Z,23.70
2019-06-27T03:37:59.157Z,23.70
2019-06-27T03:40:25.278Z,23.70
2019-06-27T03:42:51.405Z,23.80
2019-06-27T03:45:17.501Z,23.80
2019-06-27T03:47:44.850Z,23.70
2019-06-27T03:50:11.142Z,23.80
2019-06-27T03:52:37.204Z,23.90
2019-06-27T03:55:04.012Z,23.90
2019-06-27T03:57:30.096Z,23.90
2019-06-27T03:59:56.097Z,23.90
2019-06-27T04:02:22.222Z,24.00
2019-06-27T04:04:48.272Z,24.00
2019-06-27T04:07:14.319Z,24.10
2019-06-27T04:09:40.435Z,24.00
2019-06-27T04:12:06.675Z,24.10
2019-06-27T04:14:32.672Z,24.00
2019-06-27T04:16:58.960Z,24.00
2019-06-27T04:19:25.093Z,23.70
2019-06-27T04:21:51.224Z,23.70
2019-06-27T04:24:19.196Z,23.50
2019-06-27T04:26:47.269Z,23.30
2019-06-27T04:29:31.912Z,23.40
2019-06-27T04:31:41.255Z,23.40
2019-06-27T04:34:07.518Z,23.40
2019-06-27T04:36:33.520Z,23.40
2019-06-27T04:38:59.528Z,23.40
2019-06-27T04:41:25.516Z,23.40
2019-06-27T04:43:51.581Z,23.40
2019-06-27T04:46:17.640Z,23.40
2019-06-27T04:48:43.817Z,23.30
2019-06-27T04:51:10.421Z,23.20
2019-06-27T04:53:38.676Z,23.20
2019-06-27T04:56:04.956Z,23.20
2019-06-27T04:58:31.019Z,23.20
2019-06-27T05:00:57.029Z,23.20
2019-06-27T05:03:23.091Z,23.10
2019-06-27T05:05:49.099Z,22.90
2019-06-27T05:08:15.197Z,22.90
2019-06-27T05:10:42.791Z,22.90
2019-06-27T05:13:08.974Z,23.00
2019-06-27T05:15:35.027Z,23.00
2019-06-27T05:18:01.077Z,23.20
2019-06-27T05:20:27.118Z,23.20
2019-06-27T05:22:53.158Z,23.20
2019-06-27T05:25:21.192Z,23.20
2019-06-27T05:27:47.309Z,23.20
2019-06-27T05:30:15.307Z,23.20
2019-06-27T05:32:41.393Z,23.30
2019-06-27T05:35:08.061Z,23.40
2019-06-27T05:37:34.262Z,23.30
2019-06-27T05:40:00.373Z,23.40
2019-06-27T05:42:26.775Z,23.40
2019-06-27T05:44:52.896Z,23.40
2019-06-27T05:47:19.015Z,23.30
2019-06-27T05:49:45.114Z,23.20
2019-06-27T05:52:11.253Z,23.30
2019-06-27T05:54:38.052Z,23.40
2019-06-27T05:57:04.222Z,23.40
2019-06-27T05:59:30.345Z,23.30
2019-06-27T06:02:04.059Z,23.30
2019-06-27T06:04:30.160Z,23.30
2019-06-27T06:06:57.362Z,23.30
2019-06-27T06:09:23.504Z,23.60
2019-06-27T06:11:49.579Z,24.20
2019-06-27T06:14:15.754Z,24.60
2019-06-27T06:16:41.803Z,24.50
2019-06-27T06:19:07.943Z,24.70
2019-06-27T06:21:34.035Z,24.60
2019-06-27T06:24:00.091Z,24.50
2019-06-27T06:26:28.414Z,24.20
2019-06-27T06:28:55.825Z,23.90
2019-06-27T06:31:22.372Z,23.90
2019-06-27T06:33:48.437Z,23.80
2019-06-27T06:36:14.625Z,23.70
2019-06-27T06:38:40.791Z,23.60
2019-06-27T06:41:06.857Z,23.50
2019-06-27T06:43:32.969Z,23.60
2019-06-27T06:45:59.047Z,23.60
2019-06-27T06:48:25.066Z,23.70
2019-06-27T06:50:52.488Z,23.70
2019-06-27T06:53:18.632Z,23.60
2019-06-27T06:55:44.982Z,23.80
2019-06-27T06:58:11.011Z,23.70
2019-06-27T07:00:37.047Z,23.70
2019-06-27T07:03:03.065Z,23.90
2019-06-27T07:05:29.902Z,24.20
2019-06-27T07:07:55.928Z,24.50
2019-06-27T07:10:22.117Z,24.60
2019-06-27T07:12:48.156Z,24.60
2019-06-27T07:15:15.552Z,24.60
2019-06-27T07:17:41.739Z,24.60
2019-06-27T07:20:07.936Z,24.40
2019-06-27T07:22:33.941Z,24.20
2019-06-27T07:25:02.599Z,24.30
2019-06-27T07:27:29.119Z,24.60
2019-06-27T07:29:55.524Z,24.90
2019-06-27T07:32:23.440Z,25.00
2019-06-27T07:34:49.690Z,24.80
2019-06-27T07:37:15.763Z,24.70
2019-06-27T07:39:41.833Z,24.50
2019-06-27T07:42:07.913Z,24.80
2019-06-27T07:44:34.041Z,25.10
2019-06-27T07:47:00.164Z,25.30
2019-06-27T07:49:26.188Z,25.50
2019-06-27T07:51:52.292Z,25.50
2019-06-27T07:54:18.457Z,25.50
2019-06-27T07:56:46.345Z,25.50
2019-06-27T07:59:12.616Z,25.30
2019-06-27T08:01:38.678Z,25.30
2019-06-27T08:04:04.688Z,25.50
2019-06-27T08:06:30.854Z,25.70
2019-06-27T08:08:56.919Z,25.90
2019-06-27T08:11:23.380Z,26.00
2019-06-27T08:13:49.393Z,26.00
2019-06-27T08:16:15.406Z,26.20
2019-06-27T08:18:41.426Z,26.00
2019-06-27T08:21:07.471Z,26.00
2019-06-27T08:23:41.344Z,25.70
2019-06-27T08:26:01.796Z,25.70
2019-06-27T08:28:27.840Z,25.90
2019-06-27T08:30:53.866Z,26.20
2019-06-27T08:33:21.812Z,26.20
2019-06-27T08:35:48.619Z,26.00
2019-06-27T08:38:14.642Z,25.90
2019-06-27T08:40:40.760Z,25.80
2019-06-27T08:43:06.785Z,25.80
2019-06-27T08:45:32.789Z,25.90
2019-06-27T08:47:58.804Z,26.00
2019-06-27T08:50:24.910Z,26.00
2019-06-27T08:52:50.912Z,25.80
2019-06-27T08:55:17.039Z,25.70
2019-06-27T08:57:43.072Z,25.80
2019-06-27T09:00:11.471Z,25.70
2019-06-27T09:02:37.661Z,25.70
2019-06-27T09:05:05.664Z,25.80
2019-06-27T09:07:31.935Z,25.60
2019-06-27T09:09:59.069Z,25.60
2019-06-27T09:12:25.072Z,25.80
2019-06-27T09:14:51.101Z,26.00
2019-06-27T09:17:17.290Z,26.00
2019-06-27T09:19:43.345Z,26.10
2019-06-27T09:22:09.328Z,26.20
2019-06-27T09:24:35.632Z,26.50
2019-06-27T09:27:01.675Z,26.60
2019-06-27T09:29:27.680Z,26.70
2019-06-27T09:31:53.707Z,26.60
2019-06-27T09:34:21.524Z,26.70
2019-06-27T09:36:47.615Z,26.90
2019-06-27T09:39:13.735Z,27.20
2019-06-27T09:41:39.716Z,27.30
2019-06-27T09:44:05.816Z,27.40
2019-06-27T09:46:31.826Z,27.50
2019-06-27T09:48:57.828Z,27.20
2019-06-27T09:51:23.859Z,27.00
2019-06-27T09:53:49.915Z,26.90
2019-06-27T09:56:15.921Z,27.00
2019-06-27T09:58:41.907Z,27.00
2019-06-27T10:01:08.230Z,26.50
2019-06-27T10:03:34.211Z,26.50
2019-06-27T10:06:00.300Z,26.70
2019-06-27T10:08:26.298Z,26.80
2019-06-27T10:10:52.292Z,26.70
2019-06-27T10:13:18.312Z,26.50
2019-06-27T10:15:44.357Z,26.60
2019-06-27T10:18:10.352Z,26.90
2019-06-27T10:20:36.461Z,27.30
2019-06-27T10:23:02.607Z,27.40
2019-06-27T10:25:28.600Z,27.30
2019-06-27T10:27:54.807Z,27.30
2019-06-27T10:30:21.386Z,27.60
2019-06-27T10:32:58.281Z,27.60
2019-06-27T10:35:15.514Z,27.30
2019-06-27T10:37:42.305Z,27.30
2019-06-27T10:40:09.077Z,27.60
2019-06-27T10:42:35.181Z,28.20
2019-06-27T10:45:01.680Z,28.80
2019-06-27T10:47:27.963Z,29.20
2019-06-27T10:49:54.021Z,29.30
2019-06-27T10:52:20.136Z,29.20
2019-06-27T10:54:46.134Z,29.50
2019-06-27T10:57:12.242Z,29.70
2019-06-27T10:59:38.290Z,30.20
2019-06-27T11:02:05.582Z,29.80
2019-06-27T11:04:31.570Z,29.30
2019-06-27T11:06:57.580Z,29.40
2019-06-27T11:09:23.836Z,29.90
2019-06-27T11:11:49.917Z,30.50
2019-06-27T11:14:18.969Z,30.60
2019-06-27T11:16:44.286Z,30.10
2019-06-27T11:19:10.577Z,29.60
2019-06-27T11:21:36.737Z,29.50
2019-06-27T11:24:02.943Z,29.50
2019-06-27T11:26:28.989Z,30.30
2019-06-27T11:28:55.239Z,31.00
2019-06-27T11:31:23.508Z,31.00
2019-06-27T11:33:49.599Z,31.10
2019-06-27T11:36:15.637Z,30.90
2019-06-27T11:38:41.644Z,30.80
2019-06-27T11:41:08.092Z,31.00
2019-06-27T11:43:34.206Z,31.10
2019-06-27T11:46:02.297Z,31.40
2019-06-27T11:48:28.376Z,30.70
2019-06-27T11:50:54.820Z,30.10
2019-06-27T11:53:21.793Z,30.80
2019-06-27T11:55:47.897Z,31.20
2019-06-27T11:58:14.124Z,31.20
2019-06-27T12:00:40.178Z,31.00
2019-06-27T12:03:06.323Z,30.60
2019-06-27T12:05:32.417Z,30.40
2019-06-27T12:07:58.468Z,30.40
2019-06-27T12:10:24.720Z,30.50
2019-06-27T12:12:51.926Z,30.50
2019-06-27T12:15:18.168Z,30.30
2019-06-27T12:17:44.436Z,30.60
2019-06-27T12:20:10.658Z,31.00
2019-06-27T12:22:36.744Z,32.00
2019-06-27T12:25:03.322Z,32.30
2019-06-27T12:27:29.567Z,31.70
2019-06-27T12:29:55.592Z,31.40
2019-06-27T12:32:21.612Z,31.50
2019-06-27T12:34:47.659Z,31.90
2019-06-27T12:37:13.749Z,31.60
2019-06-27T12:39:43.528Z,31.40
2019-06-27T12:42:10.311Z,31.40
2019-06-27T12:44:36.324Z,31.60
2019-06-27T12:47:02.358Z,31.80
2019-06-27T12:49:44.877Z,32.00
2019-06-27T12:51:58.203Z,31.80
2019-06-27T12:54:25.529Z,31.60
2019-06-27T12:56:51.557Z,31.70
2019-06-27T12:59:17.672Z,31.80
2019-06-27T13:01:43.735Z,31.60
2019-06-27T13:04:22.988Z,32.00
2019-06-27T13:06:37.697Z,31.80
2019-06-27T13:09:05.105Z,31.90
2019-06-27T13:11:31.305Z,31.70
2019-06-27T13:13:57.590Z,31.80
2019-06-27T13:16:23.609Z,32.20
2019-06-27T13:18:49.659Z,32.10
2019-06-27T13:21:16.235Z,32.00
2019-06-27T13:23:42.710Z,32.10
2019-06-27T13:26:08.771Z,32.50
2019-06-27T13:28:34.792Z,32.60
2019-06-27T13:31:00.808Z,32.70
2019-06-27T13:33:26.883Z,32.80
2019-06-27T13:35:53.095Z,33.20
2019-06-27T13:38:19.190Z,33.50
2019-06-27T13:40:45.214Z,33.30
2019-06-27T13:43:11.236Z,33.20
2019-06-27T13:45:37.287Z,33.20
2019-06-27T13:48:03.323Z,33.40
2019-06-27T13:50:30.447Z,34.10
2019-06-27T13:52:56.477Z,34.40
2019-06-27T13:55:24.074Z,34.30
2019-06-27T13:57:50.588Z,33.50
2019-06-27T14:00:20.461Z,33.20
2019-06-27T14:02:46.483Z,33.20
2019-06-27T14:05:12.530Z,33.50
2019-06-27T14:07:39.781Z,33.60
2019-06-27T14:10:06.679Z,33.90
2019-06-27T14:12:33.794Z,34.30
2019-06-27T14:15:00.568Z,34.40
2019-06-27T14:17:26.943Z,34.50
2019-06-27T14:19:52.959Z,34.50
2019-06-27T14:22:32.789Z,34.60
2019-06-27T14:24:46.908Z,34.60
2019-06-27T14:27:13.264Z,34.80
2019-06-27T14:29:39.270Z,34.90
2019-06-27T14:32:05.418Z,34.90
2019-06-27T14:34:32.766Z,35.10
2019-06-27T14:36:58.772Z,34.70
2019-06-27T14:39:25.180Z,34.60
2019-06-27T14:41:51.194Z,34.90
2019-06-27T14:44:17.309Z,35.10
2019-06-27T14:46:43.425Z,35.10
2019-06-27T14:49:09.465Z,35.30
2019-06-27T14:51:36.016Z,35.40
2019-06-27T14:54:03.997Z,35.60
2019-06-27T14:56:30.034Z,35.80
2019-06-27T14:58:56.034Z,35.90
2019-06-27T15:01:22.089Z,35.90
2019-06-27T15:03:48.163Z,36.00
2019-06-27T15:06:14.190Z,36.20
2019-06-27T15:08:40.283Z,36.40
2019-06-27T15:11:06.339Z,35.90
2019-06-27T15:13:32.401Z,35.60
2019-06-27T15:16:11.257Z,35.60
2019-06-27T15:18:26.461Z,35.90
2019-06-27T15:20:52.413Z,36.30
2019-06-27T15:23:18.465Z,36.40
2019-06-27T15:25:44.507Z,36.70
2019-06-27T15:28:10.599Z,36.80
2019-06-27T15:30:36.689Z,36.60
2019-06-27T15:33:02.803Z,36.50
2019-06-27T15:35:28.805Z,36.50
2019-06-27T15:37:54.846Z,36.70
2019-06-27T15:40:22.039Z,36.80
2019-06-27T15:42:48.093Z,36.80
2019-06-27T15:45:14.613Z,36.70
2019-06-27T15:47:40.610Z,36.30
2019-06-27T15:50:08.250Z,36.00
2019-06-27T15:52:34.274Z,36.20
2019-06-27T15:55:00.354Z,36.20
2019-06-27T15:57:26.381Z,36.50
2019-06-27T15:59:57.175Z,36.60
2019-06-27T16:02:23.301Z,36.90
2019-06-27T16:04:49.409Z,36.70
2019-06-27T16:07:15.473Z,36.70
2019-06-27T16:09:44.010Z,36.70
2019-06-27T16:12:10.009Z,37.00
2019-06-27T16:14:36.160Z,36.80
2019-06-27T16:17:02.258Z,36.70
2019-06-27T16:19:29.068Z,37.00
2019-06-27T16:21:55.073Z,37.00
2019-06-27T16:24:21.407Z,37.20
2019-06-27T16:26:49.402Z,37.50
2019-06-27T16:29:16.180Z,37.50
2019-06-27T16:31:42.334Z,37.30
2019-06-27T16:34:08.348Z,37.40
2019-06-27T16:36:34.414Z,37.30
2019-06-27T16:39:00.446Z,37.40
2019-06-27T16:41:26.787Z,37.30
2019-06-27T16:43:53.031Z,37.30
2019-06-27T16:46:19.129Z,37.30
2019-06-27T16:48:45.236Z,37.10
2019-06-27T16:51:11.621Z,36.90
2019-06-27T16:53:37.649Z,36.70
2019-06-27T16:56:03.664Z,36.80
2019-06-27T16:58:29.701Z,37.10
2019-06-27T17:00:55.755Z,37.40
2019-06-27T17:03:23.645Z,37.50
2019-06-27T17:05:49.960Z,37.60
2019-06-27T17:08:16.095Z,36.90
2019-06-27T17:10:42.239Z,36.10
2019-06-27T17:13:08.313Z,35.50
2019-06-27T17:15:34.385Z,35.70
2019-06-27T17:18:00.413Z,36.10
2019-06-27T17:20:26.404Z,36.10
2019-06-27T17:22:52.566Z,35.90
2019-06-27T17:25:18.611Z,35.70
2019-06-27T17:27:45.355Z,36.00
2019-06-27T17:30:15.662Z,36.30
2019-06-27T17:32:42.022Z,36.40
2019-06-27T17:35:11.105Z,36.70
2019-06-27T17:37:37.165Z,36.80
2019-06-27T17:40:04.535Z,36.70
2019-06-27T17:42:33.661Z,36.50
2019-06-27T17:45:00.572Z,36.30
2019-06-27T17:47:27.410Z,35.90
2019-06-27T17:49:53.865Z,36.10
2019-06-27T17:52:20.303Z,36.30
2019-06-27T17:54:46.933Z,36.30
2019-06-27T17:57:13.913Z,36.00
2019-06-27T17:59:40.015Z,36.20
2019-06-27T18:02:07.239Z,36.00
2019-06-27T18:04:33.365Z,35.60
2019-06-27T18:07:13.027Z,35.20
2019-06-27T18:09:27.947Z,35.40
2019-06-27T18:11:54.690Z,35.40
2019-06-27T18:14:21.222Z,35.40
2019-06-27T18:16:48.581Z,35.30
2019-06-27T18:19:14.596Z,35.50
2019-06-27T18:21:43.044Z,35.70
2019-06-27T18:24:11.166Z,35.90
2019-06-27T18:26:37.845Z,35.60
2019-06-27T18:29:04.180Z,35.40
2019-06-27T18:31:30.357Z,34.70
2019-06-27T18:33:56.673Z,34.60
2019-06-27T18:36:22.869Z,34.70
2019-06-27T18:38:49.182Z,34.70
2019-06-27T18:41:16.673Z,34.60
2019-06-27T18:43:43.089Z,34.70
2019-06-27T18:46:09.186Z,35.00
2019-06-27T18:48:35.269Z,34.70
2019-06-27T18:51:01.504Z,34.50
2019-06-27T18:53:28.996Z,34.30
2019-06-27T18:55:55.161Z,34.10
2019-06-27T18:58:21.257Z,34.10
2019-06-27T19:00:47.365Z,34.30
2019-06-27T19:03:13.667Z,34.10
2019-06-27T19:05:39.720Z,33.70
2019-06-27T19:08:05.837Z,33.30
2019-06-27T19:10:31.865Z,32.90
2019-06-27T19:12:58.106Z,32.50
2019-06-27T19:15:24.135Z,32.20
2019-06-27T19:17:50.467Z,31.80
2019-06-27T19:20:27.450Z,31.40
2019-06-27T19:22:57.976Z,31.20
2019-06-27T19:25:25.977Z,30.80
2019-06-27T19:27:52.015Z,30.50
2019-06-27T19:30:18.069Z,30.10
2019-06-27T19:32:45.017Z,29.90
2019-06-27T19:35:11.228Z,29.60
2019-06-27T19:37:37.261Z,29.50
2019-06-27T19:40:06.722Z,29.40
2019-06-27T19:42:32.738Z,29.20
2019-06-27T19:44:58.759Z,29.00
2019-06-27T19:47:25.893Z,28.80
2019-06-27T19:49:53.057Z,28.80
2019-06-27T19:52:19.062Z,28.70
2019-06-27T19:54:45.145Z,28.60
2019-06-27T19:57:11.239Z,28.60
2019-06-27T19:59:39.160Z,28.40
2019-06-27T20:02:05.838Z,28.30
2019-06-27T20:04:34.086Z,28.20
2019-06-27T20:07:01.196Z,28.10
2019-06-27T20:09:27.492Z,28.00
2019-06-27T20:11:53.512Z,27.90
2019-06-27T20:14:19.539Z,27.90
2019-06-27T20:16:47.549Z,27.70
2019-06-27T20:19:14.407Z,27.70
2019-06-27T20:21:40.422Z,27.70
2019-06-27T20:24:07.929Z,27.60
2019-06-27T20:26:34.009Z,27.60
2019-06-27T20:29:00.061Z,27.50
2019-06-27T20:31:26.110Z,27.40
2019-06-27T20:33:52.388Z,27.40
2019-06-27T20:36:18.521Z,27.40
2019-06-27T20:38:45.597Z,27.30
2019-06-27T20:41:12.752Z,27.20
2019-06-27T20:43:38.798Z,27.20
2019-06-27T20:46:04.902Z,27.30
2019-06-27T20:48:30.930Z,27.30
2019-06-27T20:50:57.226Z,27.20
2019-06-27T20:53:23.464Z,27.20
2019-06-27T20:55:49.497Z,27.00
2019-06-27T20:58:15.523Z,27.00
2019-06-27T21:00:41.617Z,27.00
2019-06-27T21:03:07.649Z,27.00
2019-06-27T21:05:33.677Z,26.90
2019-06-27T21:07:59.691Z,26.80
2019-06-27T21:10:27.677Z,26.80
2019-06-27T21:12:53.722Z,26.80
2019-06-27T21:15:19.877Z,26.70
2019-06-27T21:17:45.879Z,26.70
2019-06-27T21:20:12.107Z,26.60
2019-06-27T21:22:38.840Z,26.50
2019-06-27T21:25:05.078Z,26.50
2019-06-27T21:27:31.135Z,26.50
2019-06-27T21:29:57.292Z,26.40
2019-06-27T21:32:31.420Z,26.40
2019-06-27T21:34:51.513Z,26.30
2019-06-27T21:37:17.760Z,26.10
2019-06-27T21:39:43.877Z,26.00
2019-06-27T21:42:09.873Z,25.90
2019-06-27T21:44:35.900Z,26.00
2019-06-27T21:47:01.970Z,25.90
2019-06-27T21:49:28.477Z,25.80
2019-06-27T21:51:54.490Z,25.80
2019-06-27T21:54:24.164Z,25.70
2019-06-27T21:56:50.256Z,25.60
2019-06-27T21:59:16.259Z,25.60
2019-06-27T22:01:42.266Z,25.50
2019-06-27T22:04:08.417Z,25.50
2019-06-27T22:06:34.864Z,25.40
2019-06-27T22:09:00.880Z,25.20
2019-06-27T22:11:26.879Z,25.20
2019-06-27T22:13:52.901Z,25.10
2019-06-27T22:16:18.941Z,25.10
2019-06-27T22:18:45.110Z,25.10
2019-06-27T22:21:11.196Z,25.10
2019-06-27T22:23:37.184Z,25.10
2019-06-27T22:26:03.241Z,25.10
2019-06-27T22:28:29.284Z,25.00
2019-06-27T22:30:57.802Z,25.00
2019-06-27T22:33:25.876Z,24.90
2019-06-27T22:35:51.881Z,24.80
2019-06-27T22:38:36.020Z,24.70
2019-06-27T22:41:21.843Z,24.60
2019-06-27T22:44:06.191Z,24.60
2019-06-27T22:46:50.560Z,24.50
2019-06-27T22:49:16.695Z,24.50
2019-06-27T22:51:47.190Z,24.50
2019-06-27T22:54:21.014Z,24.50
2019-06-27T22:56:48.535Z,24.30
2019-06-27T22:59:14.571Z,24.20
2019-06-27T23:01:40.597Z,24.20
2019-06-27T23:04:06.596Z,24.10
2019-06-27T23:06:33.944Z,24.10
2019-06-27T23:09:02.151Z,23.90
2019-06-27T23:11:29.709Z,23.90
2019-06-27T23:13:55.997Z,23.90
2019-06-27T23:16:22.189Z,23.80
2019-06-27T23:18:48.191Z,23.70
2019-06-27T23:21:14.199Z,23.60
2019-06-27T23:23:40.238Z,23.40
2019-06-27T23:26:06.259Z,23.40
2019-06-27T23:28:32.260Z,23.30
2019-06-27T23:30:58.323Z,23.30
2019-06-27T23:33:24.338Z,23.30
2019-06-27T23:35:50.371Z,23.30
2019-06-27T23:38:16.461Z,23.20
2019-06-27T23:40:44.443Z,23.00
2019-06-27T23:43:10.514Z,22.90
2019-06-27T23:45:37.377Z,22.80
2019-06-27T23:48:03.360Z,22.80
2019-06-27T23:50:29.371Z,22.70
2019-06-27T23:52:55.405Z,22.70
2019-06-27T23:55:21.401Z,22.70
2019-06-27T23:57:47.429Z,22.70
